Time;durP1;ratioP1;P1;durP2;ratioP2;P2;SDS_P1;SDS_P2;PMS_P1;PMS_P2;Temp;Humidity;BMP_temperature;BMP_pressure;BME280_temperature;BME280_humidity;BME280_pressure;Samples;Min_cycle;Max_cycle;Signal;HPM_P1;HPM_P2
2021/04/26 00:01:52;;;;;;;4.10;1.27;;;;;;;8.45;36.52;100629.53;5041053;28;20046;-87
2021/04/26 00:04:18;;;;;;;4.10;1.15;;;;;;;8.40;36.63;100620.97;5041324;28;20107;-87
2021/04/26 00:06:44;;;;;;;2.47;1.15;;;;;;;8.37;36.42;100620.22;5040605;28;20139;-87
2021/04/26 00:09:10;;;;;;;1.92;1.33;;;;;;;8.32;36.64;100609.88;5041090;28;20045;-87
2021/04/26 00:11:36;;;;;;;2.97;1.25;;;;;;;8.30;36.82;100616.94;5042910;28;20060;-87
2021/04/26 00:14:04;;;;;;;6.38;1.60;;;;;;;8.25;37.50;100614.47;5042207;28;20084;-87
2021/04/26 00:16:31;;;;;;;3.70;1.20;;;;;;;8.23;37.02;100615.44;5039704;28;20045;-87
2021/04/26 00:18:57;;;;;;;12.50;1.70;;;;;;;8.18;37.55;100611.19;5040099;28;20053;-87
2021/04/26 00:21:23;;;;;;;1.67;1.10;;;;;;;8.16;37.45;100612.16;5041125;28;20481;-87
2021/04/26 00:23:50;;;;;;;2.53;1.30;;;;;;;8.13;37.23;100610.50;5040358;28;20075;-87
2021/04/26 00:26:16;;;;;;;4.35;1.10;;;;;;;8.12;37.27;100616.66;5037619;28;20042;-87
2021/04/26 00:28:42;;;;;;;1.45;1.10;;;;;;;8.09;37.24;100611.50;5039887;28;20049;-87
2021/04/26 00:31:08;;;;;;;3.72;1.23;;;;;;;8.07;37.35;100608.06;5040460;28;20060;-88
2021/04/26 00:33:35;;;;;;;2.33;1.35;;;;;;;8.04;37.25;100611.63;5040312;28;20049;-87
2021/04/26 00:36:01;;;;;;;5.10;1.05;;;;;;;8.02;37.52;100612.59;5041630;28;20048;-87
2021/04/26 00:38:27;;;;;;;1.70;1.30;;;;;;;7.99;37.21;100604.84;5042196;28;20053;-87
2021/04/26 00:40:53;;;;;;;1.52;1.15;;;;;;;7.97;37.26;100604.03;5042422;28;20056;-87
2021/04/26 00:43:20;;;;;;;3.00;1.48;;;;;;;7.94;37.44;100608.47;5043197;28;20049;-87
2021/04/26 00:45:46;;;;;;;4.80;1.13;;;;;;;7.92;37.49;100604.16;5043762;28;20101;-87
2021/04/26 00:48:12;;;;;;;2.85;1.70;;;;;;;7.88;37.53;100608.66;5041814;28;20053;-87
2021/04/26 00:50:40;;;;;;;3.17;1.70;;;;;;;7.84;37.54;100599.19;5044897;28;20061;-87
2021/04/26 00:53:06;;;;;;;1.60;1.30;;;;;;;7.81;38.21;100596.66;5043982;28;20053;-87
2021/04/26 00:55:38;;;;;;;2.47;1.40;;;;;;;7.79;38.58;100598.47;5044675;28;20099;-87
2021/04/26 00:58:06;;;;;;;1.90;1.10;;;;;;;7.75;37.93;100591.63;5043196;28;20065;-87
2021/04/26 01:00:33;;;;;;;4.30;1.35;;;;;;;7.74;38.08;100600.41;5043059;28;20057;-87
2021/04/26 01:03:00;;;;;;;3.67;1.40;;;;;;;7.74;38.47;100597.78;5042264;28;20076;-87
2021/04/26 01:05:29;;;;;;;3.15;1.40;;;;;;;7.72;38.73;100596.94;5042311;28;20052;-87
2021/04/26 01:07:56;;;;;;;1.85;0.98;;;;;;;7.71;38.43;100598.72;5043009;28;20084;-87
2021/04/26 01:10:26;;;;;;;2.92;1.10;;;;;;;7.69;38.38;100588.28;5041845;28;20054;-87
2021/04/26 01:13:10;;;;;;;2.20;1.30;;;;;;;7.68;38.35;100594.44;5045196;28;20045;-87
2021/04/26 01:15:46;;;;;;;2.95;1.40;;;;;;;7.62;38.90;100599.03;5045929;28;20103;-87
2021/04/26 01:18:22;;;;;;;3.42;1.60;;;;;;;7.59;38.80;100593.88;5046573;28;20053;-87
2021/04/26 01:21:15;;;;;;;3.60;1.50;;;;;;;7.53;39.22;100592.28;5042436;28;20066;-87
2021/04/26 01:24:12;;;;;;;1.88;1.13;;;;;;;7.50;38.86;100589.75;5046267;28;20487;-86
2021/04/26 01:26:41;;;;;;;2.47;1.23;;;;;;;7.48;39.06;100583.72;5047661;28;20083;-87
2021/04/26 01:29:32;;;;;;;1.60;1.15;;;;;;;7.43;39.33;100584.72;5048696;28;20053;-87
2021/04/26 01:32:32;;;;;;;2.47;1.50;;;;;;;7.37;39.26;100577.03;5046982;28;20053;-87
2021/04/26 01:34:59;;;;;;;5.60;1.42;;;;;;;7.37;38.63;100577.03;5049738;28;20065;-86
2021/04/26 01:37:30;;;;;;;3.45;1.60;;;;;;;7.36;39.10;100570.06;5049390;28;20053;-87
2021/04/26 01:39:59;;;;;;;3.25;1.60;;;;;;;7.35;38.91;100571.00;5049117;28;20133;-86
2021/04/26 01:42:25;;;;;;;2.85;1.52;;;;;;;7.35;39.00;100562.25;5050874;28;20057;-86
2021/04/26 01:44:54;;;;;;;1.67;1.17;;;;;;;7.35;39.31;100563.13;5050571;28;20049;-86
2021/04/26 01:47:21;;;;;;;2.80;1.58;;;;;;;7.35;39.25;100555.28;5052596;28;20574;-87
2021/04/26 01:49:48;;;;;;;3.67;1.70;;;;;;;7.35;39.08;100557.91;5050966;28;20068;-86
2021/04/26 01:52:14;;;;;;;2.05;1.23;;;;;;;7.35;39.01;100555.28;5052543;28;20099;-86
2021/04/26 01:54:41;;;;;;;4.82;1.60;;;;;;;7.36;39.43;100556.97;5048436;28;20054;-86
2021/04/26 01:57:08;;;;;;;1.95;1.20;;;;;;;7.34;39.05;100550.09;5047848;28;20041;-87
2021/04/26 01:59:37;;;;;;;4.25;1.50;;;;;;;7.32;39.51;100547.50;5047910;28;20064;-87
2021/04/26 02:02:05;;;;;;;4.25;1.33;;;;;;;7.31;39.14;100545.78;5050063;28;20049;-87
2021/04/26 02:04:33;;;;;;;2.25;1.30;;;;;;;7.28;39.39;100546.75;5049500;28;20080;-86
2021/04/26 02:07:00;;;;;;;4.75;1.95;;;;;;;7.26;39.04;100547.72;5049202;28;20049;-87
2021/04/26 02:09:29;;;;;;;2.33;1.70;;;;;;;7.25;39.31;100541.59;5051635;28;20053;-86
2021/04/26 02:11:57;;;;;;;2.15;1.35;;;;;;;7.24;39.40;100547.75;5051655;28;20084;-86
2021/04/26 02:14:26;;;;;;;2.90;1.65;;;;;;;7.22;39.80;100538.22;5049298;28;20061;-86
2021/04/26 02:16:52;;;;;;;4.40;1.25;;;;;;;7.21;39.21;100539.13;5048674;28;20383;-87
2021/04/26 02:19:19;;;;;;;2.13;1.40;;;;;;;7.19;39.45;100541.78;5047420;28;20057;-87
2021/04/26 02:21:46;;;;;;;2.83;1.70;;;;;;;7.16;39.37;100534.91;5047767;28;20049;-86
2021/04/26 02:24:12;;;;;;;3.30;1.50;;;;;;;7.15;39.18;100535.78;5047341;28;20054;-87
2021/04/26 02:26:38;;;;;;;2.00;1.25;;;;;;;7.10;39.05;100535.06;5047920;28;20049;-87
2021/04/26 02:29:05;;;;;;;4.63;1.40;;;;;;;7.07;39.39;100529.94;5046178;28;20057;-87
2021/04/26 02:31:33;;;;;;;2.67;1.48;;;;;;;7.02;39.67;100527.44;5046314;28;20060;-87
2021/04/26 02:34:27;;;;;;;2.70;1.42;;;;;;;6.95;39.99;100528.53;5046734;28;20141;-87
2021/04/26 02:37:04;;;;;;;;;;;;;;;6.97;39.07;100523.25;5044404;28;20049;-87
2021/04/26 02:39:32;;;;;;;5.22;1.70;;;;;;;6.96;39.53;100522.41;5044985;28;19921;-86
2021/04/26 02:42:01;;;;;;;4.20;1.70;;;;;;;6.91;39.75;100516.44;5044886;28;20046;-86
2021/04/26 02:44:30;;;;;;;2.05;1.30;;;;;;;6.86;39.73;100528.78;5045215;28;20060;-87
2021/04/26 02:47:07;;;;;;;3.47;1.80;;;;;;;6.81;40.70;100513.25;5046246;28;20045;-87
2021/04/26 02:49:34;;;;;;;2.70;1.50;;;;;;;6.80;39.88;100508.88;5046232;28;20064;-86
2021/04/26 02:52:01;;;;;;;3.05;1.40;;;;;;;6.78;40.19;100506.31;5048445;28;20096;-87
2021/04/26 02:54:34;;;;;;;3.88;1.77;;;;;;;6.78;40.30;100508.09;5046831;28;20056;-86
2021/04/26 02:57:01;;;;;;;2.58;1.40;;;;;;;6.76;40.40;100507.25;5046866;28;20104;-87
2021/04/26 02:59:29;;;;;;;2.70;1.52;;;;;;;6.74;40.37;100506.47;5047520;28;20053;-86
2021/04/26 03:01:57;;;;;;;3.28;1.98;;;;;;;6.74;40.48;100501.22;5047244;28;20049;-86
2021/04/26 03:04:23;;;;;;;2.70;1.55;;;;;;;6.73;40.27;100502.13;5045882;28;20052;-86
2021/04/26 03:06:52;;;;;;;3.63;1.55;;;;;;;6.71;40.58;100503.94;5048236;28;20049;-86
2021/04/26 03:09:18;;;;;;;3.08;1.70;;;;;;;6.71;40.51;100498.69;5047259;28;20425;-87
2021/04/26 03:11:45;;;;;;;2.85;1.52;;;;;;;6.70;40.58;100499.59;5047390;28;20049;-87
2021/04/26 03:14:12;;;;;;;3.25;1.38;;;;;;;6.68;40.40;100497.03;5045034;28;20141;-87
2021/04/26 03:16:39;;;;;;;2.22;1.42;;;;;;;6.67;40.59;100494.44;5046172;28;20049;-87
2021/04/26 03:19:07;;;;;;;3.55;1.83;;;;;;;6.65;40.66;100487.50;5045789;28;20049;-85
2021/04/26 03:21:34;;;;;;;3.65;1.95;;;;;;;6.62;40.83;100498.06;5046195;28;20513;-86
2021/04/26 03:24:01;;;;;;;5.38;1.67;;;;;;;6.61;40.87;100488.50;5046077;28;20053;-87
2021/04/26 03:26:31;;;;;;;3.22;1.50;;;;;;;6.58;41.45;100485.97;5047105;28;20055;-86
2021/04/26 03:28:58;;;;;;;2.60;1.50;;;;;;;6.58;41.03;100485.13;5047231;28;20045;-86
2021/04/26 03:31:26;;;;;;;7.15;1.63;;;;;;;6.56;40.69;100487.78;5047208;28;20061;-88
2021/04/26 03:33:52;;;;;;;3.42;1.83;;;;;;;6.55;40.95;100477.34;5048426;28;20050;-86
2021/04/26 03:36:21;;;;;;;4.20;1.60;;;;;;;6.51;40.72;100480.06;5047613;28;20049;-86
2021/04/26 03:38:50;;;;;;;4.00;1.45;;;;;;;6.49;40.69;100484.47;5047516;28;20049;-87
2021/04/26 03:41:16;;;;;;;3.00;1.45;;;;;;;6.48;40.78;100482.78;5047288;28;20053;-86
2021/04/26 03:43:45;;;;;;;2.20;1.55;;;;;;;6.44;41.31;100475.91;5047056;28;20568;-87
2021/04/26 03:46:12;;;;;;;2.40;1.55;;;;;;;6.43;41.06;100479.41;5047006;28;20050;-87
2021/04/26 03:48:39;;;;;;;3.15;1.50;;;;;;;6.39;40.92;100473.41;5046668;28;20056;-87
2021/04/26 03:51:05;;;;;;;4.15;1.88;;;;;;;6.38;41.29;100474.31;5046893;28;20057;-86
2021/04/26 03:53:31;;;;;;;4.22;1.95;;;;;;;6.37;41.02;100480.47;5045268;28;20053;-86
2021/04/26 03:55:58;;;;;;;4.60;1.90;;;;;;;6.33;41.34;100477.97;5045407;28;20049;-86
2021/04/26 03:58:24;;;;;;;3.63;1.77;;;;;;;6.29;41.36;100471.97;5045272;28;20053;-86
2021/04/26 04:00:50;;;;;;;2.38;1.73;;;;;;;6.23;41.26;100475.59;5046623;28;20399;-86
2021/04/26 04:03:16;;;;;;;5.80;1.50;;;;;;;6.19;41.37;100470.50;5047716;28;20325;-86
2021/04/26 04:05:43;;;;;;;4.95;1.70;;;;;;;6.12;41.54;100470.66;5047387;28;20049;-86
2021/04/26 04:08:09;;;;;;;3.60;1.80;;;;;;;6.07;41.68;100462.09;5047975;28;20109;-86
2021/04/26 04:10:36;;;;;;;4.22;1.70;;;;;;;6.04;41.56;100462.16;5049348;28;20057;-86
2021/04/26 04:13:03;;;;;;;2.63;1.58;;;;;;;6.02;41.88;100461.31;5048230;28;20515;-86
2021/04/26 04:15:29;;;;;;;6.40;1.98;;;;;;;6.00;41.83;100452.66;5049280;28;20490;-86
2021/04/26 04:17:57;;;;;;;1.50;1.38;;;;;;;5.99;41.84;100456.19;5048720;28;20053;-86
2021/04/26 04:20:24;;;;;;;4.20;2.10;;;;;;;5.98;41.66;100455.31;5047271;28;20060;-87
2021/04/26 04:22:50;;;;;;;4.65;1.52;;;;;;;5.97;41.95;100455.34;5044387;28;20157;-87
2021/04/26 04:25:17;;;;;;;2.47;1.60;;;;;;;5.96;41.99;100453.63;5040429;28;20487;-86
2021/04/26 04:27:44;;;;;;;5.18;2.00;;;;;;;5.95;42.13;100457.16;5047848;28;20049;-86
2021/04/26 04:30:12;;;;;;;7.00;2.30;;;;;;;5.94;42.24;100461.53;5047750;28;20049;-86
2021/04/26 04:32:38;;;;;;;5.82;1.80;;;;;;;5.95;42.02;100465.00;5047975;28;20454;-86
2021/04/26 04:35:06;;;;;;;2.80;1.70;;;;;;;5.94;42.43;100458.91;5046898;28;20054;-86
2021/04/26 04:37:32;;;;;;;3.38;1.80;;;;;;;5.93;42.39;100457.19;5046808;28;20053;-86
2021/04/26 04:39:58;;;;;;;3.00;1.58;;;;;;;5.92;42.18;100460.72;5046117;28;20049;-86
2021/04/26 04:42:25;;;;;;;3.92;1.92;;;;;;;5.92;42.16;100462.47;5047093;28;20053;-86
2021/04/26 04:44:51;;;;;;;6.82;1.58;;;;;;;5.92;42.39;100457.22;5046382;28;20059;-87
2021/04/26 04:47:17;;;;;;;6.07;2.15;;;;;;;5.91;42.50;100458.97;5048333;28;20041;-86
2021/04/26 04:49:43;;;;;;;3.70;2.10;;;;;;;5.91;42.50;100455.53;5046777;28;20108;-86
2021/04/26 04:52:09;;;;;;;2.90;1.83;;;;;;;5.92;42.60;100452.88;5047482;28;20569;-87
2021/04/26 04:54:35;;;;;;;4.45;2.25;;;;;;;5.93;42.72;100451.09;5035005;28;20053;-87
2021/04/26 04:57:02;;;;;;;3.25;1.90;;;;;;;5.94;42.66;100450.22;5033030;28;20045;-86
2021/04/26 04:59:28;;;;;;;6.90;1.77;;;;;;;5.94;42.95;100450.22;5033183;28;20421;-87
2021/04/26 05:01:54;;;;;;;3.60;2.10;;;;;;;5.95;42.47;100452.78;5033135;28;20096;-87
2021/04/26 05:04:21;;;;;;;2.30;1.80;;;;;;;5.97;42.98;100450.13;5031971;28;20112;-87
2021/04/26 05:06:47;;;;;;;3.50;1.88;;;;;;;5.98;42.76;100451.88;5033495;28;20052;-87
2021/04/26 05:09:13;;;;;;;3.45;1.92;;;;;;;6.00;42.96;100452.66;5033617;28;20054;-87
2021/04/26 05:11:39;;;;;;;5.65;2.40;;;;;;;6.00;43.04;100444.81;5033356;28;20449;-87
2021/04/26 05:14:05;;;;;;;3.53;1.90;;;;;;;6.01;43.30;100449.16;5033105;28;20108;-86
2021/04/26 05:16:32;;;;;;;7.38;2.00;;;;;;;6.00;43.32;100452.66;5032234;28;20052;-87
2021/04/26 05:18:59;;;;;;;2.47;1.80;;;;;;;6.02;43.41;100452.63;5031362;28;20464;-87
2021/04/26 05:21:26;;;;;;;4.75;2.42;;;;;;;6.04;43.51;100449.09;5031844;28;20057;-87
2021/04/26 05:23:54;;;;;;;5.72;2.17;;;;;;;6.07;44.18;100451.63;5031626;28;20057;-87
2021/04/26 05:26:26;;;;;;;6.18;2.20;;;;;;;6.11;44.36;100450.66;5033456;28;20053;-87
2021/04/26 05:28:52;;;;;;;7.03;2.33;;;;;;;6.16;43.63;100445.28;5031474;28;20057;-87
2021/04/26 05:31:19;;;;;;;6.07;1.90;;;;;;;6.17;43.64;100447.00;5031297;28;20053;-87
2021/04/26 05:33:45;;;;;;;4.07;2.08;;;;;;;6.21;43.81;100451.25;5032595;28;20058;-87
2021/04/26 05:36:11;;;;;;;5.22;2.53;;;;;;;6.23;43.87;100443.34;5031465;28;20046;-87
2021/04/26 05:38:37;;;;;;;5.43;2.30;;;;;;;6.26;43.98;100445.91;5032419;28;20049;-86
2021/04/26 05:41:03;;;;;;;2.90;1.83;;;;;;;6.29;44.26;100445.81;5032591;28;20057;-86
2021/04/26 05:43:29;;;;;;;6.28;2.03;;;;;;;6.34;43.92;100443.94;5032433;28;20049;-87
2021/04/26 05:45:55;;;;;;;4.43;2.30;;;;;;;6.38;43.85;100445.56;5031436;28;20049;-86
2021/04/26 05:48:21;;;;;;;6.07;2.22;;;;;;;6.42;43.94;100442.88;5031232;28;20052;-86
2021/04/26 05:50:48;;;;;;;3.25;1.70;;;;;;;6.45;43.81;100445.38;5031526;28;20057;-87
2021/04/26 05:53:14;;;;;;;3.35;1.95;;;;;;;6.47;43.90;100438.34;5031518;28;20057;-87
2021/04/26 05:55:40;;;;;;;3.95;2.50;;;;;;;6.49;44.04;100436.53;5031587;28;20053;-87
2021/04/26 05:58:06;;;;;;;4.25;2.10;;;;;;;6.52;44.09;100441.69;5032528;28;20053;-87
2021/04/26 06:00:32;;;;;;;6.47;2.70;;;;;;;6.56;44.03;100445.94;5033535;28;20457;-87
2021/04/26 06:02:59;;;;;;;6.10;2.72;;;;;;;6.61;44.27;100438.78;5037350;28;20060;-87
2021/04/26 06:05:26;;;;;;;5.72;2.60;;;;;;;6.65;44.05;100437.81;5037006;28;20502;-87
2021/04/26 06:07:52;;;;;;;8.63;2.55;;;;;;;6.70;43.67;100435.06;5036817;28;20411;-86
2021/04/26 06:10:18;;;;;;;3.47;1.60;;;;;;;6.74;43.66;100431.47;5038173;28;20057;-87
2021/04/26 06:12:44;;;;;;;4.35;2.00;;;;;;;6.82;43.84;100435.56;5037411;28;20111;-87
2021/04/26 06:15:13;;;;;;;3.03;1.95;;;;;;;6.85;43.42;100441.59;5036963;28;20056;-86
2021/04/26 06:17:39;;;;;;;3.63;2.05;;;;;;;6.90;43.78;100428.34;5036353;28;20045;-87
2021/04/26 06:20:06;;;;;;;5.85;2.20;;;;;;;6.94;43.52;100435.22;5037181;28;20428;-87
2021/04/26 06:22:33;;;;;;;4.47;1.90;;;;;;;6.99;43.45;100432.47;5037469;28;20076;-87
2021/04/26 06:24:59;;;;;;;6.90;2.10;;;;;;;7.03;43.74;100431.47;5036271;28;20112;-87
2021/04/26 06:27:26;;;;;;;5.78;1.98;;;;;;;7.09;43.48;100435.63;5035694;28;20418;-87
2021/04/26 06:29:52;;;;;;;5.15;1.70;;;;;;;7.14;43.72;100433.75;5036059;28;20457;-87
2021/04/26 06:32:18;;;;;;;2.10;1.70;;;;;;;7.21;43.45;100434.41;5036639;28;20049;-87
2021/04/26 06:34:45;;;;;;;3.75;2.20;;;;;;;7.26;43.50;100437.72;5035611;28;20084;-87
2021/04/26 06:37:11;;;;;;;2.22;1.80;;;;;;;7.33;43.26;100433.13;5035195;28;20080;-87
2021/04/26 06:39:37;;;;;;;5.35;1.80;;;;;;;7.38;43.19;100426.84;5035589;28;20053;-87
2021/04/26 06:42:04;;;;;;;3.97;1.75;;;;;;;7.44;43.19;100431.00;5036040;28;20053;-88
2021/04/26 06:44:30;;;;;;;6.97;2.22;;;;;;;7.50;43.00;100432.56;5039812;28;20049;-88
2021/04/26 06:46:56;;;;;;;6.60;2.40;;;;;;;7.55;43.06;100430.66;5039659;28;20049;-88
2021/04/26 06:49:24;;;;;;;4.53;1.88;;;;;;;7.59;43.53;100432.25;5040924;28;20057;-88
2021/04/26 06:51:50;;;;;;;6.22;2.15;;;;;;;7.66;43.42;100428.53;5039252;28;20060;-88
2021/04/26 06:54:16;;;;;;;3.00;2.00;;;;;;;7.72;43.15;100429.22;5038067;28;20128;-88
2021/04/26 06:56:42;;;;;;;3.03;1.80;;;;;;;7.78;43.43;100427.25;5037115;28;20049;-88
2021/04/26 06:59:08;;;;;;;3.10;1.85;;;;;;;7.84;42.96;100430.59;5040180;28;20132;-88
2021/04/26 07:01:35;;;;;;;4.55;1.90;;;;;;;7.92;42.95;100433.78;5038596;28;20064;-88
2021/04/26 07:04:01;;;;;;;3.88;2.30;;;;;;;7.99;43.13;100426.56;5038051;28;20133;-88
2021/04/26 07:06:27;;;;;;;4.93;2.08;;;;;;;8.04;42.93;100424.63;5039510;28;20045;-88
2021/04/26 07:08:53;;;;;;;5.68;2.10;;;;;;;8.10;42.91;100424.41;5038717;28;20054;-88
2021/04/26 07:11:19;;;;;;;6.05;2.30;;;;;;;8.17;42.52;100428.53;5037300;28;20054;-88
2021/04/26 07:13:45;;;;;;;2.30;1.80;;;;;;;8.24;42.69;100420.44;5038151;28;20049;-88
2021/04/26 07:16:12;;;;;;;5.13;2.28;;;;;;;8.30;42.47;100425.47;5037745;28;20053;-88
2021/04/26 07:18:38;;;;;;;3.97;1.98;;;;;;;8.34;42.50;100427.06;5038138;28;20099;-88
2021/04/26 07:21:05;;;;;;;4.18;1.90;;;;;;;8.41;42.57;100423.28;5038086;28;20060;-88
2021/04/26 07:23:31;;;;;;;3.20;1.85;;;;;;;8.47;41.99;100419.59;5038826;28;20053;-88
2021/04/26 07:25:59;;;;;;;4.32;2.03;;;;;;;8.53;42.09;100413.28;5038734;28;20053;-88
2021/04/26 07:28:26;;;;;;;3.25;1.83;;;;;;;8.58;41.87;100413.97;5038974;28;20057;-88
2021/04/26 07:30:52;;;;;;;5.88;2.00;;;;;;;8.63;41.96;100409.38;5039391;28;20057;-88
2021/04/26 07:33:18;;;;;;;3.50;2.20;;;;;;;8.69;41.95;100406.53;5040174;28;20049;-88
2021/04/26 07:35:44;;;;;;;2.97;1.80;;;;;;;8.73;41.84;100407.25;5038008;28;20049;-88
2021/04/26 07:38:10;;;;;;;4.38;2.00;;;;;;;8.80;41.88;100406.13;5039173;28;20531;-88
2021/04/26 07:40:37;;;;;;;2.85;1.77;;;;;;;8.88;41.76;100411.06;5040959;28;20115;-88
2021/04/26 07:43:03;;;;;;;10.65;2.35;;;;;;;8.94;41.92;100404.72;5039287;28;20061;-88
2021/04/26 07:45:29;;;;;;;4.15;2.17;;;;;;;9.03;41.95;100414.00;5038060;28;20050;-88
2021/04/26 07:47:57;;;;;;;3.75;2.10;;;;;;;9.10;41.83;100412.84;5039972;28;20060;-88
2021/04/26 07:50:24;;;;;;;4.03;2.60;;;;;;;9.17;42.05;100414.31;5041243;28;20049;-88
2021/04/26 07:52:50;;;;;;;3.75;2.25;;;;;;;9.24;42.24;100407.88;5040180;28;20065;-88
2021/04/26 07:55:17;;;;;;;5.72;2.38;;;;;;;9.34;42.11;100412.72;5039135;28;20502;-88
2021/04/26 07:57:43;;;;;;;4.00;2.13;;;;;;;9.40;42.23;100407.25;5039200;28;20052;-88
2021/04/26 08:00:11;;;;;;;4.68;2.17;;;;;;;9.49;41.91;100406.84;5038662;28;20053;-88
2021/04/26 08:02:37;;;;;;;2.92;1.95;;;;;;;9.58;42.39;100399.50;5039798;28;20058;-88
2021/04/26 08:05:05;;;;;;;2.40;1.83;;;;;;;9.65;42.17;100407.06;5039972;28;20515;-88
2021/04/26 08:07:31;;;;;;;3.25;2.10;;;;;;;9.75;42.01;100398.75;5040326;28;20049;-88
2021/04/26 08:09:57;;;;;;;6.30;1.90;;;;;;;9.84;41.90;100410.66;5038867;28;20065;-88
2021/04/26 08:12:23;;;;;;;4.20;2.25;;;;;;;9.93;41.73;100412.03;5037234;28;20049;-88
2021/04/26 08:14:49;;;;;;;4.40;1.90;;;;;;;10.00;41.65;100409.09;5036142;28;20486;-88
2021/04/26 08:17:16;;;;;;;3.13;1.77;;;;;;;10.09;41.55;100399.91;5037080;28;20061;-88
2021/04/26 08:19:43;;;;;;;3.25;1.75;;;;;;;10.18;41.67;100403.94;5036751;28;20049;-88
2021/04/26 08:22:10;;;;;;;3.22;2.05;;;;;;;10.26;41.39;100400.94;5037166;28;20094;-88
2021/04/26 08:24:37;;;;;;;5.35;1.67;;;;;;;10.35;40.73;100408.41;5037725;28;20050;-88
2021/04/26 08:27:03;;;;;;;6.05;2.15;;;;;;;10.43;40.83;100405.41;5035332;28;20413;-88
2021/04/26 08:29:30;;;;;;;11.20;3.35;;;;;;;10.52;40.69;100405.06;5036341;28;20053;-88
2021/04/26 08:31:56;;;;;;;3.38;1.63;;;;;;;10.61;40.32;100400.28;5036731;28;20049;-88
2021/04/26 08:34:23;;;;;;;5.22;1.95;;;;;;;10.69;40.14;100403.38;5036685;28;20055;-88
2021/04/26 08:36:49;;;;;;;2.60;1.70;;;;;;;10.77;40.27;100395.97;5036051;28;20099;-88
2021/04/26 08:39:17;;;;;;;4.40;1.67;;;;;;;10.86;40.30;100394.69;5037874;28;20064;-88
2021/04/26 08:41:46;;;;;;;1.83;1.42;;;;;;;10.97;39.74;100390.69;5038212;28;20107;-88
2021/04/26 08:44:13;;;;;;;5.30;1.60;;;;;;;11.07;40.38;100386.69;5037330;28;20108;-88
2021/04/26 08:46:44;;;;;;;3.55;1.52;;;;;;;11.16;40.13;100385.38;5036044;28;20046;-88
2021/04/26 08:49:12;;;;;;;1.73;1.55;;;;;;;11.28;39.88;100379.50;5035940;28;20053;-88
2021/04/26 08:51:39;;;;;;;2.45;1.50;;;;;;;11.40;39.84;100377.19;5036507;28;20457;-88
2021/04/26 08:54:06;;;;;;;2.95;1.63;;;;;;;11.53;39.80;100385.31;5039300;28;20053;-88
2021/04/26 08:56:35;;;;;;;2.53;1.70;;;;;;;11.64;39.18;100374.22;5036947;28;20050;-89
2021/04/26 08:59:02;;;;;;;4.50;1.90;;;;;;;11.75;39.55;100382.44;5037597;28;20060;-88
2021/04/26 09:01:28;;;;;;;2.45;1.50;;;;;;;11.86;39.38;100380.06;5039144;28;20053;-88
2021/04/26 09:04:04;;;;;;;2.10;1.67;;;;;;;11.96;38.88;100375.16;5038417;28;20061;-88
2021/04/26 09:06:50;;;;;;;2.22;1.42;;;;;;;12.08;38.90;100371.03;5042426;28;20117;-88
2021/04/26 09:09:38;;;;;;;5.32;2.30;;;;;;;12.22;38.62;100378.22;5041112;28;20450;-88
2021/04/26 09:12:10;;;;;;;3.17;1.90;;;;;;;12.38;38.82;100374.78;5039288;28;20116;-88
2021/04/26 09:14:47;;;;;;;3.25;1.85;;;;;;;12.50;38.24;100367.94;5041366;28;20490;-88
2021/04/26 09:17:36;;;;;;;3.38;1.80;;;;;;;12.63;37.96;100368.09;5040677;28;20431;-88
2021/04/26 09:20:15;;;;;;;2.10;1.60;;;;;;;12.78;37.59;100366.41;5041993;28;20128;-88
2021/04/26 09:22:45;;;;;;;2.28;1.50;;;;;;;12.94;37.25;100362.91;5037643;28;20056;-88
2021/04/26 09:25:34;;;;;;;3.30;1.63;;;;;;;13.06;37.27;100353.41;5041701;28;20057;-88
2021/04/26 09:28:07;;;;;;;8.98;1.92;;;;;;;13.18;37.06;100357.13;5037983;28;20056;-88
2021/04/26 09:30:51;;;;;;;2.30;1.67;;;;;;;13.28;37.00;100361.78;5038206;28;20513;-88
2021/04/26 09:33:36;;;;;;;6.35;2.00;;;;;;;13.36;37.08;100358.69;5039557;28;20045;-88
2021/04/26 09:36:20;;;;;;;2.63;1.55;;;;;;;13.46;36.28;100352.84;5040030;28;20103;-88
2021/04/26 09:38:51;;;;;;;3.45;1.50;;;;;;;13.58;36.72;100353.94;5040497;28;20521;-88
2021/04/26 09:41:26;;;;;;;3.15;1.60;;;;;;;13.62;36.28;100343.09;5041245;28;20053;-88
2021/04/26 09:44:12;;;;;;;2.40;1.90;;;;;;;13.70;36.47;100347.91;5042149;28;20056;-88
2021/04/26 09:46:44;;;;;;;3.60;1.50;;;;;;;13.84;35.63;100359.44;5038705;28;20521;-88
2021/04/26 09:49:15;;;;;;;2.92;1.60;;;;;;;13.93;35.86;100341.22;5039954;28;20124;-88
2021/04/26 09:51:48;;;;;;;2.63;1.80;;;;;;;14.02;35.56;100345.06;5040547;28;20064;-89
2021/04/26 09:54:15;;;;;;;2.25;1.67;;;;;;;14.10;35.31;100349.91;5039337;28;20052;-89
2021/04/26 09:56:45;;;;;;;3.45;1.70;;;;;;;14.18;34.86;100346.78;5038104;28;20569;-89
2021/04/26 09:59:15;;;;;;;2.72;1.73;;;;;;;14.26;34.64;100338.34;5038846;28;20060;-89
2021/04/26 10:01:45;;;;;;;2.00;1.58;;;;;;;14.33;34.84;100334.38;5039239;28;20053;-88
2021/04/26 10:04:12;;;;;;;3.67;1.80;;;;;;;14.41;34.78;100332.09;5039964;28;20054;-88
2021/04/26 10:06:39;;;;;;;3.47;1.83;;;;;;;14.49;35.03;100325.41;5039491;28;20046;-89
2021/04/26 10:09:08;;;;;;;3.28;1.65;;;;;;;14.57;34.87;100326.63;5038609;28;20053;-88
2021/04/26 10:11:36;;;;;;;5.53;2.00;;;;;;;14.65;34.80;100318.19;5039112;28;20060;-89
2021/04/26 10:14:10;;;;;;;5.00;1.92;;;;;;;14.76;34.86;100311.34;5037983;28;20045;-89
2021/04/26 10:16:47;;;;;;;4.20;1.90;;;;;;;14.87;33.60;100311.50;5036765;28;20053;-89
2021/04/26 10:19:15;;;;;;;3.88;1.90;;;;;;;14.98;34.50;100306.34;5039926;28;20145;-89
2021/04/26 10:21:55;;;;;;;5.47;1.90;;;;;;;15.04;34.27;100297.13;5041917;28;20049;-89
2021/04/26 10:24:25;;;;;;;7.05;2.00;;;;;;;15.16;34.05;100300.75;5043067;28;20107;-88
2021/04/26 10:27:06;;;;;;;6.47;2.10;;;;;;;15.26;34.04;100298.34;5042025;28;20041;-89
2021/04/26 10:29:39;;;;;;;5.63;1.70;;;;;;;15.36;33.69;100291.44;5040160;28;20073;-88
2021/04/26 10:32:10;;;;;;;2.53;1.75;;;;;;;15.47;33.45;100295.13;5042288;28;20089;-88
2021/04/26 10:34:43;;;;;;;2.15;1.63;;;;;;;15.61;34.19;100294.19;5041853;28;20053;-88
2021/04/26 10:37:14;;;;;;;5.45;1.85;;;;;;;15.73;34.03;100284.50;5041356;28;20045;-89
2021/04/26 10:39:57;;;;;;;4.05;1.90;;;;;;;15.86;33.79;100287.16;5041349;28;20513;-88
2021/04/26 10:42:33;;;;;;;2.50;1.77;;;;;;;16.02;33.62;100281.63;5039168;28;20050;-88
2021/04/26 10:45:01;;;;;;;2.83;2.10;;;;;;;16.18;33.71;100273.41;5042472;28;20068;-88
2021/04/26 10:47:27;;;;;;;2.50;1.75;;;;;;;16.32;33.83;100280.38;5042219;28;20045;-88
2021/04/26 10:50:19;;;;;;;2.30;1.65;;;;;;;16.49;33.50;100280.94;5040165;28;20077;-89
2021/04/26 10:52:50;;;;;;;4.20;1.88;;;;;;;16.76;33.37;100274.53;5036202;28;20057;-89
2021/04/26 10:55:23;;;;;;;2.95;1.63;;;;;;;17.03;33.25;100270.75;5037773;28;20083;-89
2021/04/26 10:57:55;;;;;;;4.25;2.05;;;;;;;17.41;33.40;100263.47;5036862;28;20073;-89
2021/04/26 11:00:23;;;;;;;2.35;1.75;;;;;;;17.90;33.93;100264.06;5037745;28;20060;-89
2021/04/26 11:02:54;;;;;;;2.38;1.60;;;;;;;18.49;32.34;100248.72;5038502;28;20056;-89
2021/04/26 11:05:22;;;;;;;1.85;1.63;;;;;;;19.18;33.17;100251.06;5037708;28;20053;-89
2021/04/26 11:07:53;;;;;;;2.38;1.92;;;;;;;19.86;32.27;100244.31;5036147;28;20071;-89
2021/04/26 11:10:29;;;;;;;2.58;1.85;;;;;;;20.57;30.98;100250.47;5035414;28;20391;-90
2021/04/26 11:13:01;;;;;;;3.00;1.58;;;;;;;21.23;29.81;100247.19;5036563;28;20140;-90
2021/04/26 11:15:28;;;;;;;2.67;1.38;;;;;;;21.81;29.87;100236.41;5034887;28;20049;-90
2021/04/26 11:18:13;;;;;;;2.67;1.60;;;;;;;22.34;28.92;100232.13;5036101;28;20053;-90
2021/04/26 11:20:39;;;;;;;5.13;2.00;;;;;;;22.84;28.73;100221.00;5034561;28;20053;-89
2021/04/26 11:23:26;;;;;;;2.60;1.45;;;;;;;23.27;28.73;100221.09;5034966;28;20088;-89
2021/04/26 11:26:12;;;;;;;3.20;1.70;;;;;;;23.73;27.50;100204.69;5037851;28;20057;-89
2021/04/26 11:29:08;;;;;;;4.03;1.90;;;;;;;24.21;27.27;100209.53;5039148;28;20641;-89
2021/04/26 11:31:41;;;;;;;1.98;1.50;;;;;;;24.67;25.96;100206.34;5037723;28;20449;-90
2021/04/26 11:34:18;;;;;;;2.00;1.40;;;;;;;25.02;26.72;100202.63;5041350;28;20057;-89
2021/04/26 11:37:00;;;;;;;2.50;1.80;;;;;;;25.34;25.95;100201.69;5036299;28;20045;-90
2021/04/26 11:39:34;;;;;;;3.92;1.70;;;;;;;25.65;25.33;100188.44;5040562;28;20057;-89
2021/04/26 11:42:01;;;;;;;2.28;1.63;;;;;;;25.92;25.40;100194.38;5037520;28;20046;-89